Terminal Aerodrome Forecast
Issued by NWS Boston, MA

Home | Current Version | Previous Version | Text Only | Print | Product List | Glossary On
Versions: 1 2 3 4 5 6 7 8 9 10 11 12 13 14 15 16 17 18 19 20 21 22 23 24 25 26 27 28 29 30 31 32 33 34 35 36 37 38 39 40 41 42 43 44 45 46 47
000
FTUS41 KBOX 201309 AAA
TAFBOS
TAF AMD
KBOS 201309Z 2013/2118 20011KT P6SM SCT045
     FM201500 20012G20KT P6SM FEW050
     FM210400 20009KT P6SM BKN120
     FM211200 17009KT 3SM BR BKN010
     FM211500 16009KT 6SM BR BKN030=

USA.gov is the U.S. government's official web portal to all federal, state and local government web resources and services.